TimeCDT,TemperatureF,Dew PointF,Humidity,Sea Level PressureIn,VisibilityMPH,Wind Direction,Wind SpeedMPH,Gust SpeedMPH,PrecipitationIn,Events,Conditions,WindDirDegrees,DateUTC
12:15 AM,62.6,59.0,88,30.08,10.0,ESE,4.6,-,N/A,,Clear,120,2013-09-28 05:15:00
12:35 AM,62.6,59.0,88,30.08,10.0,SE,3.5,-,N/A,,Clear,130,2013-09-28 05:35:00
12:55 AM,62.6,59.0,88,30.08,10.0,Calm,Calm,-,N/A,,Clear,0,2013-09-28 05:55:00
1:15 AM,62.6,59.0,88,30.08,10.0,SE,3.5,-,N/A,,Clear,130,2013-09-28 06:15:00
1:35 AM,62.6,59.0,88,30.08,10.0,SE,3.5,-,N/A,,Clear,130,2013-09-28 06:35:00
1:55 AM,60.8,59.0,94,30.08,10.0,SE,3.5,-,N/A,,Clear,130,2013-09-28 06:55:00
2:15 AM,62.6,59.0,88,30.07,9.0,Calm,Calm,-,N/A,,Clear,0,2013-09-28 07:15:00
2:35 AM,62.6,59.0,88,30.07,10.0,South,3.5,-,N/A,,Clear,180,2013-09-28 07:35:00
2:55 AM,62.6,59.0,88,30.07,10.0,SSE,4.6,-,N/A,,Clear,150,2013-09-28 07:55:00
3:15 AM,62.6,59.0,88,30.07,10.0,SSE,5.8,-,N/A,,Clear,160,2013-09-28 08:15:00
3:35 AM,62.6,59.0,88,30.07,10.0,SSE,5.8,-,N/A,,Clear,160,2013-09-28 08:35:00
3:55 AM,62.6,59.0,88,30.08,10.0,South,4.6,-,N/A,,Clear,180,2013-09-28 08:55:00
4:15 AM,62.6,60.8,94,30.08,10.0,South,5.8,-,N/A,,Clear,170,2013-09-28 09:15:00
4:35 AM,64.4,59.0,83,30.09,10.0,South,5.8,-,N/A,,Clear,170,2013-09-28 09:35:00
4:55 AM,62.6,59.0,88,30.09,10.0,South,5.8,-,N/A,,Clear,170,2013-09-28 09:55:00
5:15 AM,62.6,59.0,88,30.09,10.0,South,5.8,-,N/A,,Clear,170,2013-09-28 10:15:00
5:35 AM,62.6,59.0,88,30.09,10.0,South,6.9,-,N/A,,Clear,170,2013-09-28 10:35:00
5:55 AM,64.4,59.0,83,30.10,10.0,South,6.9,-,N/A,,Clear,170,2013-09-28 10:55:00
6:15 AM,64.4,59.0,83,30.11,10.0,South,4.6,-,N/A,,Clear,190,2013-09-28 11:15:00
6:35 AM,64.4,59.0,83,30.12,10.0,South,5.8,-,N/A,,Clear,170,2013-09-28 11:35:00
6:55 AM,64.4,59.0,83,30.12,10.0,South,5.8,-,N/A,,Clear,170,2013-09-28 11:55:00
7:15 AM,64.4,59.0,83,30.13,10.0,SSE,4.6,-,N/A,,Clear,160,2013-09-28 12:15:00
7:35 AM,64.4,59.0,83,30.13,10.0,South,5.8,-,N/A,,Clear,170,2013-09-28 12:35:00
7:55 AM,64.4,59.0,83,30.14,10.0,South,5.8,-,N/A,,Clear,170,2013-09-28 12:55:00
8:15 AM,66.2,59.0,78,30.14,10.0,South,5.8,-,N/A,,Partly Cloudy,180,2013-09-28 13:15:00
8:35 AM,68.0,59.0,73,30.14,10.0,South,9.2,-,N/A,,Clear,180,2013-09-28 13:35:00
8:55 AM,68.0,59.0,73,30.15,10.0,South,9.2,-,N/A,,Clear,180,2013-09-28 13:55:00
9:15 AM,69.8,59.0,68,30.16,10.0,South,9.2,-,N/A,,Clear,180,2013-09-28 14:15:00
9:35 AM,71.6,59.0,64,30.16,10.0,South,8.1,-,N/A,,Clear,190,2013-09-28 14:35:00
9:55 AM,71.6,59.0,64,30.16,10.0,South,9.2,-,N/A,,Clear,190,2013-09-28 14:55:00
10:15 AM,73.4,59.0,61,30.16,10.0,SSW,11.5,18.4,N/A,,Clear,200,2013-09-28 15:15:00
10:35 AM,73.4,59.0,61,30.16,10.0,South,10.4,17.3,N/A,,Clear,190,2013-09-28 15:35:00
10:55 AM,73.4,59.0,61,30.17,10.0,South,6.9,19.6,N/A,,Unknown,180,2013-09-28 15:55:00
11:15 AM,73.4,59.0,61,30.16,10.0,South,10.4,19.6,N/A,,Unknown,190,2013-09-28 16:15:00
11:35 AM,73.4,57.2,57,30.16,10.0,SSW,11.5,19.6,N/A,,Clear,200,2013-09-28 16:35:00
11:55 AM,75.2,59.0,57,30.16,10.0,South,11.5,18.4,N/A,,Clear,190,2013-09-28 16:55:00
12:15 PM,75.2,59.0,57,30.15,10.0,South,11.5,-,N/A,,Clear,170,2013-09-28 17:15:00
12:35 PM,75.2,59.0,57,30.14,10.0,South,11.5,19.6,N/A,,Clear,180,2013-09-28 17:35:00
12:55 PM,77.0,59.0,54,30.14,10.0,SSW,9.2,19.6,N/A,,Clear,200,2013-09-28 17:55:00
1:15 PM,75.2,57.2,53,30.13,10.0,SSW,10.4,19.6,N/A,,Clear,210,2013-09-28 18:15:00
1:35 PM,77.0,57.2,50,30.11,10.0,South,8.1,18.4,N/A,,Clear,190,2013-09-28 18:35:00
1:55 PM,77.0,57.2,50,30.11,10.0,South,9.2,-,N/A,,Clear,190,2013-09-28 18:55:00
2:15 PM,77.0,57.2,50,30.10,10.0,SSW,10.4,16.1,N/A,,Clear,200,2013-09-28 19:15:00
2:35 PM,77.0,57.2,50,30.09,10.0,South,8.1,-,N/A,,Clear,180,2013-09-28 19:35:00
2:55 PM,77.0,57.2,50,30.08,10.0,South,10.4,16.1,N/A,,Clear,180,2013-09-28 19:55:00
3:15 PM,77.0,57.2,50,30.08,10.0,South,9.2,-,N/A,,Clear,190,2013-09-28 20:15:00
3:35 PM,77.0,57.2,50,30.07,10.0,South,9.2,16.1,N/A,,Clear,180,2013-09-28 20:35:00
3:55 PM,77.0,55.4,47,30.07,10.0,South,9.2,-,N/A,,Clear,190,2013-09-28 20:55:00
4:15 PM,77.0,57.2,50,30.06,10.0,South,10.4,-,N/A,,Clear,190,2013-09-28 21:15:00
4:35 PM,75.2,55.4,50,30.07,10.0,SSW,6.9,-,N/A,,Clear,200,2013-09-28 21:35:00
4:55 PM,75.2,57.2,53,30.06,10.0,South,6.9,-,N/A,,Clear,180,2013-09-28 21:55:00
5:15 PM,75.2,55.4,50,30.06,10.0,South,8.1,-,N/A,,Clear,180,2013-09-28 22:15:00
5:35 PM,75.2,55.4,50,30.06,10.0,South,6.9,-,N/A,,Clear,170,2013-09-28 22:35:00
5:55 PM,73.4,55.4,53,30.06,10.0,South,5.8,-,N/A,,Clear,170,2013-09-28 22:55:00
6:15 PM,73.4,55.4,53,30.06,10.0,SSE,4.6,-,N/A,,Clear,160,2013-09-28 23:15:00
6:35 PM,69.8,55.4,60,30.06,10.0,SSE,4.6,-,N/A,,Clear,160,2013-09-28 23:35:00
6:55 PM,66.2,57.2,73,30.06,10.0,SSE,3.5,-,N/A,,Clear,160,2013-09-28 23:55:00
7:15 PM,64.4,57.2,77,30.06,10.0,Calm,Calm,-,N/A,,Clear,0,2013-09-29 00:15:00
7:35 PM,64.4,57.2,77,30.06,10.0,Calm,Calm,-,N/A,,Clear,0,2013-09-29 00:35:00
7:55 PM,64.4,57.2,77,30.07,10.0,South,4.6,-,N/A,,Clear,170,2013-09-29 00:55:00
8:15 PM,64.4,57.2,77,30.07,10.0,South,4.6,-,N/A,,Clear,170,2013-09-29 01:15:00
8:35 PM,66.2,57.2,73,30.07,10.0,South,5.8,-,N/A,,Clear,170,2013-09-29 01:35:00
8:55 PM,64.4,55.4,73,30.07,10.0,SSE,5.8,-,N/A,,Clear,160,2013-09-29 01:55:00
9:15 PM,66.2,55.4,68,30.07,10.0,South,5.8,-,N/A,,Clear,170,2013-09-29 02:15:00
9:35 PM,66.2,55.4,68,30.08,10.0,South,6.9,-,N/A,,Clear,170,2013-09-29 02:35:00
9:55 PM,66.2,55.4,68,30.07,10.0,South,8.1,-,N/A,,Clear,170,2013-09-29 02:55:00
10:15 PM,64.4,55.4,73,30.08,10.0,South,6.9,-,N/A,,Clear,180,2013-09-29 03:15:00
10:35 PM,66.2,55.4,68,30.07,10.0,South,6.9,-,N/A,,Clear,180,2013-09-29 03:35:00
10:55 PM,66.2,55.4,68,30.07,10.0,South,5.8,-,N/A,,Clear,170,2013-09-29 03:55:00
11:15 PM,64.4,55.4,73,30.07,10.0,South,6.9,-,N/A,,Clear,170,2013-09-29 04:15:00
11:35 PM,64.4,57.2,77,30.07,10.0,South,6.9,-,N/A,,Clear,180,2013-09-29 04:35:00
11:55 PM,64.4,57.2,77,30.07,10.0,South,8.1,-,N/A,,Clear,170,2013-09-29 04:55:00